createdAt,value
2022-11-29T00:02:00.421Z,18.13
2022-11-29T00:06:08.333Z,23.42
2022-11-29T00:10:10.232Z,23.45
2022-11-29T00:14:14.487Z,26.58
2022-11-29T00:18:16.169Z,20.92
2022-11-29T00:22:17.716Z,23.88
2022-11-29T00:26:19.397Z,22.33
2022-11-29T00:30:21.252Z,22.20
2022-11-29T00:34:22.897Z,24.50
2022-11-29T00:38:24.441Z,23.33
2022-11-29T00:42:26.127Z,23.90
2022-11-29T00:46:27.732Z,20.50
2022-11-29T00:50:29.444Z,23.20
2022-11-29T00:54:31.038Z,21.55
2022-11-29T00:58:33.446Z,23.17
2022-11-29T01:02:35.063Z,22.95
2022-11-29T01:06:36.718Z,20.13
2022-11-29T01:10:38.426Z,23.42
2022-11-29T01:14:39.991Z,23.55
2022-11-29T01:18:42.047Z,24.25
2022-11-29T01:22:43.608Z,20.83
2022-11-29T01:26:45.180Z,24.58
2022-11-29T01:30:46.812Z,21.80
2022-11-29T01:34:48.435Z,23.98
2022-11-29T01:38:50.149Z,26.58
2022-11-29T01:42:51.739Z,24.67
2022-11-29T01:46:54.943Z,26.00
2022-11-29T01:51:00.847Z,30.02
2022-11-29T01:55:05.644Z,31.33
2022-11-29T01:59:14.575Z,24.20
2022-11-29T02:03:18.287Z,26.35
2022-11-29T02:07:19.900Z,30.30
2022-11-29T02:11:33.606Z,39.08
2022-11-29T02:15:46.336Z,36.15
2022-11-29T02:20:06.884Z,27.92
2022-11-29T02:24:35.023Z,25.77
2022-11-29T02:28:55.335Z,28.58
2022-11-29T02:33:34.391Z,27.02
2022-11-29T02:37:54.285Z,21.83
2022-11-29T02:41:58.666Z,23.65
2022-11-29T02:46:21.758Z,23.52
2022-11-29T02:50:52.366Z,31.35
2022-11-29T02:55:15.574Z,28.50
2022-11-29T02:59:40.164Z,27.42
2022-11-29T03:04:06.844Z,29.95
2022-11-29T03:08:29.021Z,28.40
2022-11-29T03:12:43.770Z,32.28
2022-11-29T03:17:09.301Z,36.30
2022-11-29T03:21:22.947Z,29.90
2022-11-29T03:25:31.883Z,32.97
2022-11-29T03:29:39.218Z,45.28
2022-11-29T03:33:58.215Z,30.45
2022-11-29T03:38:11.125Z,33.72
2022-11-29T03:42:37.177Z,31.98
2022-11-29T03:47:00.188Z,29.40
2022-11-29T03:51:14.932Z,29.20
2022-11-29T03:55:22.255Z,28.13
2022-11-29T03:59:47.801Z,31.40
2022-11-29T04:04:26.310Z,25.90
2022-11-29T04:08:39.880Z,25.90
2022-11-29T04:13:09.369Z,27.85
2022-11-29T04:17:31.226Z,25.13
2022-11-29T04:21:48.119Z,32.70
2022-11-29T04:26:09.379Z,40.05
2022-11-29T04:30:22.854Z,26.70
2022-11-29T04:34:58.895Z,32.45
2022-11-29T04:39:32.275Z,26.75
2022-11-29T04:47:50.240Z,31.05
2022-11-29T04:52:19.835Z,29.30
2022-11-29T04:56:45.451Z,28.58
2022-11-29T05:01:18.575Z,29.50
2022-11-29T05:05:30.469Z,27.58
2022-11-29T05:09:47.211Z,35.08
2022-11-29T05:14:03.939Z,30.52
2022-11-29T05:18:13.608Z,44.17
2022-11-29T05:22:48.226Z,29.52
2022-11-29T05:26:54.481Z,30.33
2022-11-29T05:31:19.125Z,29.58
2022-11-29T05:35:36.092Z,25.77
2022-11-29T05:39:37.685Z,31.98
2022-11-29T05:44:00.969Z,34.55
2022-11-29T05:52:44.019Z,38.00
2022-11-29T05:57:08.267Z,31.10
2022-11-29T06:01:24.104Z,48.75
2022-11-29T06:05:35.523Z,34.97
2022-11-29T06:10:11.170Z,36.85
2022-11-29T06:14:28.179Z,33.95
2022-11-29T06:19:00.449Z,33.00
2022-11-29T06:23:24.252Z,30.33
2022-11-29T06:27:25.821Z,28.92
2022-11-29T06:31:39.998Z,32.40
2022-11-29T06:35:52.129Z,29.92
2022-11-29T06:39:54.930Z,33.03
2022-11-29T06:43:56.953Z,28.73
2022-11-29T06:48:03.280Z,26.17
2022-11-29T06:52:28.515Z,29.05
2022-11-29T06:56:48.904Z,28.65
2022-11-29T07:01:06.322Z,26.00
2022-11-29T07:05:18.602Z,32.15
2022-11-29T07:09:25.423Z,29.73
2022-11-29T07:13:27.306Z,32.08
2022-11-29T07:21:50.228Z,32.30
2022-11-29T07:25:57.712Z,25.70
2022-11-29T07:30:05.390Z,26.73
2022-11-29T07:34:22.216Z,21.85
2022-11-29T07:38:56.299Z,29.85
2022-11-29T07:43:22.250Z,29.20
2022-11-29T07:47:23.905Z,30.75
2022-11-29T07:51:25.865Z,32.88
2022-11-29T07:55:27.908Z,30.83
2022-11-29T07:59:29.623Z,39.87
2022-11-29T08:03:31.310Z,55.75
2022-11-29T08:07:36.873Z,57.63
2022-11-29T08:11:39.629Z,56.70
2022-11-29T08:15:45.528Z,36.28
2022-11-29T08:19:47.082Z,33.75
2022-11-29T08:23:49.632Z,36.25
2022-11-29T08:27:51.836Z,30.02
2022-11-29T08:31:54.100Z,32.07
2022-11-29T08:35:56.559Z,26.50
2022-11-29T08:39:59.029Z,24.08
2022-11-29T08:44:00.613Z,23.60
2022-11-29T08:48:02.238Z,27.35
2022-11-29T08:52:22.752Z,24.55
2022-11-29T08:57:16.451Z,29.27
2022-11-29T09:00:47.488Z,26.52
2022-11-29T09:04:49.119Z,26.35
2022-11-29T09:08:50.736Z,25.45
2022-11-29T09:12:52.356Z,26.17
2022-11-29T09:16:53.909Z,25.73
2022-11-29T09:20:55.501Z,23.95
2022-11-29T09:24:57.440Z,24.00
2022-11-29T09:29:03.920Z,24.17
2022-11-29T09:33:05.480Z,27.00
2022-11-29T09:37:07.099Z,26.83
2022-11-29T09:41:30.543Z,24.65
2022-11-29T09:45:38.548Z,20.45
2022-11-29T09:49:43.164Z,22.55
2022-11-29T09:54:16.135Z,23.35
2022-11-29T09:58:21.736Z,23.08
2022-11-29T10:02:53.032Z,20.05
2022-11-29T10:06:54.587Z,19.77
2022-11-29T10:11:13.402Z,20.38
2022-11-29T10:15:27.907Z,19.17
2022-11-29T10:19:43.156Z,20.77
2022-11-29T10:23:53.074Z,24.48
2022-11-29T10:27:54.691Z,20.83
2022-11-29T10:31:59.330Z,22.48
2022-11-29T10:36:05.132Z,23.38
2022-11-29T10:40:15.084Z,20.45
2022-11-29T10:44:16.692Z,18.23
2022-11-29T10:48:21.673Z,20.05
2022-11-29T10:52:24.032Z,20.40
2022-11-29T10:56:31.235Z,20.23
2022-11-29T11:00:43.917Z,21.55
2022-11-29T11:04:47.715Z,24.95
2022-11-29T11:08:57.827Z,19.92
2022-11-29T11:13:04.924Z,20.00
2022-11-29T11:17:27.020Z,22.25
2022-11-29T11:21:28.648Z,21.55
2022-11-29T11:25:35.184Z,23.52
2022-11-29T11:29:41.345Z,23.98
2022-11-29T11:33:44.788Z,22.98
2022-11-29T11:37:56.143Z,26.48
2022-11-29T11:42:16.369Z,22.85
2022-11-29T11:46:18.392Z,20.27
2022-11-29T11:50:37.495Z,22.33
2022-11-29T11:54:39.143Z,26.30
2022-11-29T11:58:43.939Z,23.88
2022-11-29T12:02:45.682Z,22.85
2022-11-29T12:06:52.319Z,21.42
2022-11-29T12:11:02.807Z,32.17
2022-11-29T12:15:16.507Z,32.05
2022-11-29T12:19:23.580Z,40.20
2022-11-29T12:24:00.108Z,34.03
2022-11-29T12:28:01.815Z,32.63
2022-11-29T12:32:25.294Z,43.88
2022-11-29T12:36:35.821Z,39.03
2022-11-29T12:40:43.596Z,41.78
2022-11-29T12:45:23.706Z,39.55
2022-11-29T12:49:34.420Z,45.95
2022-11-29T12:54:04.221Z,42.00
2022-11-29T12:58:16.616Z,40.45
2022-11-29T13:02:42.541Z,44.15
2022-11-29T13:07:02.808Z,39.97
2022-11-29T13:11:24.303Z,42.78
2022-11-29T13:16:01.517Z,35.65
2022-11-29T13:20:18.133Z,38.33
2022-11-29T13:24:28.775Z,39.63
2022-11-29T13:28:34.162Z,40.58
2022-11-29T13:32:57.125Z,40.13
2022-11-29T13:37:15.403Z,39.45
2022-11-29T13:41:26.765Z,41.40
2022-11-29T13:45:37.652Z,40.85
2022-11-29T13:50:02.242Z,43.15
2022-11-29T13:54:07.208Z,41.72
2022-11-29T13:58:17.868Z,45.50
2022-11-29T14:02:30.753Z,44.63
2022-11-29T14:06:38.063Z,46.92
2022-11-29T14:10:39.849Z,42.92
2022-11-29T14:14:51.576Z,41.17
2022-11-29T14:19:05.318Z,47.40
2022-11-29T14:23:07.627Z,45.67
2022-11-29T14:27:10.084Z,47.45
2022-11-29T14:31:31.755Z,43.72
2022-11-29T14:35:43.544Z,42.70
2022-11-29T14:39:52.957Z,41.58
2022-11-29T14:44:18.711Z,42.58
2022-11-29T14:48:28.114Z,38.92
2022-11-29T14:53:02.520Z,37.67
2022-11-29T14:57:58.240Z,40.83
2022-11-29T15:02:12.336Z,39.38
2022-11-29T15:06:23.301Z,50.45
2022-11-29T15:10:29.855Z,38.90
2022-11-29T15:14:42.752Z,37.55
2022-11-29T15:22:54.409Z,39.08
2022-11-29T15:26:57.375Z,40.63
2022-11-29T15:31:10.147Z,41.33
2022-11-29T15:35:18.681Z,37.17
2022-11-29T15:39:46.063Z,42.13
2022-11-29T15:43:52.558Z,40.65
2022-11-29T15:47:54.809Z,40.58
2022-11-29T15:52:05.818Z,39.63
2022-11-29T15:56:33.057Z,34.25
2022-11-29T16:00:35.372Z,43.53
2022-11-29T16:04:43.570Z,33.22
2022-11-29T16:08:50.081Z,41.22
2022-11-29T16:13:07.056Z,34.17
2022-11-29T16:17:27.767Z,34.55
2022-11-29T16:21:41.885Z,33.30
2022-11-29T16:26:00.888Z,37.10
2022-11-29T16:30:20.024Z,32.20
2022-11-29T16:34:27.217Z,36.97
2022-11-29T16:38:29.085Z,32.92
2022-11-29T16:42:33.764Z,33.80
2022-11-29T16:46:40.420Z,29.98
2022-11-29T16:50:43.047Z,37.42
2022-11-29T16:54:44.899Z,33.90
2022-11-29T16:59:20.978Z,30.03
2022-11-29T17:03:15.464Z,30.38
2022-11-29T17:07:27.028Z,29.98
2022-11-29T17:11:28.757Z,34.13
2022-11-29T17:15:30.599Z,34.00
2022-11-29T17:19:32.416Z,31.48
2022-11-29T17:23:34.814Z,32.13
2022-11-29T17:27:36.660Z,36.53
2022-11-29T17:31:38.884Z,36.38
2022-11-29T17:35:40.451Z,33.30
2022-11-29T17:39:44.791Z,35.67
2022-11-29T17:43:46.629Z,32.97
2022-11-29T17:47:51.632Z,35.72
2022-11-29T17:51:53.745Z,31.25
2022-11-29T17:55:55.667Z,34.33
2022-11-29T17:59:57.495Z,34.17
2022-11-29T18:04:01.772Z,26.25
2022-11-29T18:08:05.864Z,31.67
2022-11-29T18:12:08.008Z,37.78
2022-11-29T18:16:12.648Z,31.35
2022-11-29T18:20:15.070Z,33.28
2022-11-29T18:24:17.300Z,33.67
2022-11-29T18:28:18.877Z,32.43
2022-11-29T18:32:20.464Z,42.85
2022-11-29T18:36:31.123Z,40.00
2022-11-29T18:40:33.033Z,39.97
2022-11-29T18:44:34.870Z,30.33
2022-11-29T18:48:36.971Z,38.00
2022-11-29T18:52:40.793Z,40.40
2022-11-29T18:56:43.633Z,37.42
2022-11-29T19:00:45.331Z,34.33
2022-11-29T19:04:48.385Z,36.22
2022-11-29T19:08:52.060Z,36.58
2022-11-29T19:12:53.675Z,32.88
2022-11-29T19:16:55.334Z,30.70
2022-11-29T19:21:11.052Z,38.42
2022-11-29T19:25:12.683Z,32.97
2022-11-29T19:29:15.301Z,33.10
2022-11-29T19:33:16.993Z,38.05
2022-11-29T19:37:18.710Z,46.15
2022-11-29T19:41:26.171Z,49.53
2022-11-29T19:45:27.792Z,41.63
2022-11-29T19:49:29.425Z,44.05
2022-11-29T19:53:32.677Z,44.78
2022-11-29T19:57:34.268Z,48.08
2022-11-29T20:01:41.776Z,44.28
2022-11-29T20:05:53.664Z,41.60
2022-11-29T20:09:55.476Z,44.60
2022-11-29T20:14:01.802Z,42.95
2022-11-29T20:18:04.694Z,36.10
2022-11-29T20:22:06.324Z,41.08
2022-11-29T20:26:14.342Z,36.78
2022-11-29T20:30:16.152Z,39.42
2022-11-29T20:34:19.196Z,41.72
2022-11-29T20:38:51.991Z,41.03
2022-11-29T20:43:10.862Z,39.95
2022-11-29T20:47:21.628Z,36.40
2022-11-29T20:51:28.831Z,42.67
2022-11-29T20:55:30.621Z,36.92
2022-11-29T20:59:32.283Z,43.95
2022-11-29T21:03:34.334Z,35.90
2022-11-29T21:07:36.101Z,43.23
2022-11-29T21:11:37.993Z,36.50
2022-11-29T21:15:41.377Z,35.53
2022-11-29T21:19:43.931Z,40.72
2022-11-29T21:23:56.919Z,32.63
2022-11-29T21:28:00.470Z,41.05
2022-11-29T21:32:03.086Z,39.17
2022-11-29T21:36:06.197Z,33.65
2022-11-29T21:40:09.564Z,34.53
2022-11-29T21:44:11.265Z,36.55
2022-11-29T21:48:31.397Z,36.05
2022-11-29T21:52:32.955Z,30.33
2022-11-29T21:56:34.599Z,35.97
2022-11-29T22:00:37.682Z,31.85
2022-11-29T22:04:39.498Z,32.65
2022-11-29T22:08:42.061Z,32.03
2022-11-29T22:12:51.873Z,39.58
2022-11-29T22:16:56.976Z,46.20
2022-11-29T22:21:05.557Z,44.88
2022-11-29T22:25:07.554Z,33.90
2022-11-29T22:29:11.437Z,35.83
2022-11-29T22:33:13.611Z,40.92
2022-11-29T22:37:15.336Z,33.17
2022-11-29T22:41:18.574Z,33.15
2022-11-29T22:45:20.149Z,34.25
2022-11-29T22:49:21.822Z,38.88
2022-11-29T22:53:23.378Z,30.38
2022-11-29T22:57:24.951Z,33.22
2022-11-29T23:01:29.370Z,32.85
2022-11-29T23:05:32.993Z,38.92
2022-11-29T23:09:34.565Z,42.13
2022-11-29T23:13:38.965Z,106.57
2022-11-29T23:17:40.717Z,122.82
2022-11-29T23:21:44.712Z,146.32
2022-11-29T23:25:49.989Z,88.38
2022-11-29T23:29:51.732Z,72.10
2022-11-29T23:33:53.435Z,56.85
2022-11-29T23:37:55.116Z,45.83
2022-11-29T23:41:56.811Z,51.28
2022-11-29T23:45:58.907Z,43.83
2022-11-29T23:50:00.562Z,44.23
2022-11-29T23:54:02.172Z,43.22
2022-11-29T23:58:03.878Z,46.60
